VMV weather

Las Gemelas Airport
Rio Bravo, Tamaulipas, Mexico

Public forecast

Using degrees Celsius for public forecast. Weather courtesy of forecast.io.

Closest aviation weather report (METAR) to Las Gemelas Airport

Closest report is General Lucio Blanco International Airport, 9.5 nm (17.6 km) NW. Retrieved 2019/10/18 00:43 UTC (8 minutes ago):

MMRX 180043Z 01010KT 8SM BKN040 24/16 A2987 RMK 8/500 HZY

Closest aviation forecast (TAF) to Las Gemelas Airport

Forecast is more than 6 hours old.

Closest forecast is General Lucio Blanco International Airport, 9.5 nm (17.6 km) NW. Retrieved 2019/10/17 18:00 UTC (7 hours ago):

TAF TAF MMRX 171657Z 1718/1818 33010KT P6SM OVC025 BECMG 1720/1721 02015KT BKN025 FM180200 02008KT P6SM SCT020 FM181000 02005KT 6SM HZ SCT015